Time;durP1;ratioP1;P1;durP2;ratioP2;P2;SDS_P1;SDS_P2;PMS_P1;PMS_P2;Temp;Humidity;BMP_temperature;BMP_pressure;BME280_temperature;BME280_humidity;BME280_pressure;Samples;Min_cycle;Max_cycle;Signal;HPM_P1;HPM_P2
2022/03/05 00:00:28;;;;;;;11.07;3.50;;;1.00;99.90;;;;;;4991676;28;20049;-85
2022/03/05 00:02:53;;;;;;;8.70;4.27;;;0.00;99.90;;;;;;4990080;28;20053;-85
2022/03/05 00:05:19;;;;;;;7.93;4.28;;;1.20;99.90;;;;;;4992684;28;20412;-85
2022/03/05 00:07:45;;;;;;;14.45;4.22;;;0.00;99.90;;;;;;5000580;28;20049;-84
2022/03/05 00:10:11;;;;;;;8.85;4.32;;;0.10;99.90;;;;;;5007892;28;20046;-86
2022/03/05 00:12:37;;;;;;;7.07;4.63;;;0.00;99.90;;;;;;5004073;28;20042;-85
2022/03/05 00:15:03;;;;;;;8.57;4.57;;;1.30;99.90;;;;;;4987293;28;20049;-84
2022/03/05 00:17:29;;;;;;;11.07;3.57;;;-0.10;99.90;;;;;;5001461;28;20064;-85
2022/03/05 00:19:54;;;;;;;7.85;3.00;;;-0.10;99.90;;;;;;4990731;28;20041;-85
2022/03/05 00:22:21;;;;;;;3.90;3.22;;;-0.10;99.90;;;;;;5003975;28;20051;-86
2022/03/05 00:24:49;;;;;;;5.72;3.92;;;-0.10;99.90;;;;;;4986808;28;20128;-84
2022/03/05 00:27:16;;;;;;;10.55;2.92;;;-0.20;99.90;;;;;;4989778;28;20405;-85
2022/03/05 00:29:42;;;;;;;6.18;3.58;;;0.00;99.90;;;;;;4978686;28;20140;-86
2022/03/05 00:32:08;;;;;;;8.82;3.83;;;-0.20;99.90;;;;;;5003516;28;20492;-85
2022/03/05 00:34:34;;;;;;;6.60;3.28;;;-0.20;99.90;;;;;;5011735;28;20053;-85
2022/03/05 00:36:59;;;;;;;3.33;2.53;;;0.00;99.90;;;;;;4980056;28;20047;-85
2022/03/05 00:39:25;;;;;;;7.45;3.10;;;0.70;99.90;;;;;;4979644;28;20044;-85
2022/03/05 00:41:51;;;;;;;1.95;1.77;;;0.90;99.90;;;;;;4978015;28;20125;-84
2022/03/05 00:44:17;;;;;;;4.40;2.83;;;-0.20;99.90;;;;;;4989760;28;20507;-85
2022/03/05 00:46:42;;;;;;;5.22;2.97;;;0.40;99.90;;;;;;5008016;28;20724;-85
2022/03/05 00:49:08;;;;;;;5.15;3.75;;;-0.30;99.90;;;;;;4992566;28;20041;-84
2022/03/05 00:51:34;;;;;;;5.38;2.63;;;-0.30;99.90;;;;;;5008856;28;20195;-85
2022/03/05 00:54:00;;;;;;;3.88;2.53;;;0.80;99.90;;;;;;4991559;28;20069;-85
2022/03/05 00:56:25;;;;;;;4.45;3.10;;;0.60;99.90;;;;;;4969314;28;20052;-85
2022/03/05 00:58:51;;;;;;;2.47;2.20;;;0.80;99.90;;;;;;4970954;28;20478;-84
2022/03/05 01:01:17;;;;;;;3.53;2.88;;;0.30;99.90;;;;;;5006634;28;20038;-85
2022/03/05 01:03:44;;;;;;;3.03;2.75;;;0.30;99.90;;;;;;4992963;28;20038;-85
2022/03/05 01:06:10;;;;;;;;;;;0.30;99.90;;;;;;4984280;28;20050;-84
2022/03/05 01:08:35;;;;;;;4.63;2.50;;;-0.30;99.90;;;;;;4983503;28;19952;-85
2022/03/05 01:11:02;;;;;;;3.58;2.58;;;-0.40;99.90;;;;;;5007269;28;20041;-85
2022/03/05 01:13:28;;;;;;;5.22;2.83;;;-0.30;99.90;;;;;;5008377;28;20041;-85
2022/03/05 01:15:54;;;;;;;9.40;4.20;;;0.80;99.90;;;;;;5028059;28;20455;-84
2022/03/05 01:18:20;;;;;;;4.00;2.90;;;0.40;99.90;;;;;;4976912;28;20285;-86
2022/03/05 01:20:45;;;;;;;4.30;2.78;;;0.80;99.90;;;;;;4994221;28;20056;-84
2022/03/05 01:23:12;;;;;;;3.45;2.45;;;0.80;99.90;;;;;;4982492;28;20046;-84
2022/03/05 01:25:38;;;;;;;5.72;2.45;;;-0.50;99.90;;;;;;5008115;28;20061;-85
2022/03/05 01:28:04;;;;;;;7.55;3.30;;;-0.50;99.90;;;;;;4994673;28;20041;-85
2022/03/05 01:30:29;;;;;;;8.07;3.47;;;-0.50;99.90;;;;;;4990062;28;20471;-85
2022/03/05 01:32:55;;;;;;;7.90;3.90;;;0.40;99.90;;;;;;4983170;28;20076;-85
2022/03/05 01:35:21;;;;;;;6.82;2.22;;;0.00;99.90;;;;;;5008801;28;20038;-85
2022/03/05 01:37:46;;;;;;;3.60;3.28;;;-0.60;99.90;;;;;;4977041;28;20552;-85
2022/03/05 01:40:12;;;;;;;4.63;2.67;;;-0.60;99.90;;;;;;5008870;28;20046;-85
2022/03/05 01:42:38;;;;;;;2.08;1.88;;;-0.60;99.90;;;;;;4976018;28;20480;-85
2022/03/05 01:45:04;;;;;;;7.72;2.65;;;0.60;99.90;;;;;;4976317;28;20093;-85
2022/03/05 01:47:30;;;;;;;4.63;2.83;;;-0.70;99.90;;;;;;4993576;28;20117;-85
2022/03/05 01:49:56;;;;;;;5.78;2.53;;;-0.70;99.90;;;;;;5006242;28;20129;-85
2022/03/05 01:52:21;;;;;;;4.97;3.03;;;-0.60;99.90;;;;;;4992014;28;20045;-85
2022/03/05 01:54:47;;;;;;;5.28;2.15;;;-0.70;99.90;;;;;;5000624;28;20514;-85
2022/03/05 01:57:13;;;;;;;7.70;2.50;;;-0.30;99.90;;;;;;4986812;28;20054;-85
2022/03/05 01:59:39;;;;;;;2.80;2.22;;;0.50;99.90;;;;;;4989151;28;20796;-85
2022/03/05 02:02:05;;;;;;;5.10;2.73;;;-0.60;99.90;;;;;;4996521;28;20452;-84
2022/03/05 02:04:31;;;;;;;3.45;2.90;;;-0.80;99.90;;;;;;5006653;28;20050;-84
2022/03/05 02:06:57;;;;;;;8.25;2.67;;;-0.80;99.90;;;;;;4984972;28;20042;-84
2022/03/05 02:09:22;;;;;;;7.97;3.30;;;-0.90;99.90;;;;;;4965640;28;20081;-84
2022/03/05 02:11:48;;;;;;;4.72;2.78;;;0.30;99.90;;;;;;4999054;28;20101;-85
2022/03/05 02:14:19;;;;;;;5.80;3.35;;;-0.50;99.90;;;;;;4999921;28;20129;-84
2022/03/05 02:16:45;;;;;;;3.83;2.90;;;-0.30;99.90;;;;;;5010591;28;20045;-84
2022/03/05 02:19:11;;;;;;;11.48;3.08;;;-1.00;99.90;;;;;;5024992;28;20057;-84
2022/03/05 02:21:37;;;;;;;3.05;2.72;;;-1.00;99.90;;;;;;4999227;28;20050;-85
2022/03/05 02:24:03;;;;;;;3.75;2.38;;;-1.00;99.90;;;;;;4992802;28;20044;-83
2022/03/05 02:26:28;;;;;;;4.57;1.97;;;-1.00;99.90;;;;;;5006145;28;20053;-84
2022/03/05 02:28:55;;;;;;;5.15;2.60;;;-1.00;99.90;;;;;;5002153;28;20111;-84
2022/03/05 02:31:22;;;;;;;3.28;2.70;;;-1.00;99.90;;;;;;5007542;28;20404;-84
2022/03/05 02:33:48;;;;;;;3.80;2.88;;;0.20;99.90;;;;;;5005645;28;20112;-84
2022/03/05 02:36:13;;;;;;;4.50;3.28;;;-1.00;99.90;;;;;;5011893;28;20046;-84
2022/03/05 02:38:40;;;;;;;2.20;1.73;;;-1.00;99.90;;;;;;5015597;28;20041;-84
2022/03/05 02:41:05;;;;;;;2.72;1.92;;;-1.00;99.90;;;;;;5013428;28;20045;-83
2022/03/05 02:43:31;;;;;;;5.80;2.38;;;-1.00;99.90;;;;;;4966371;28;20048;-84
2022/03/05 02:45:57;;;;;;;5.05;3.00;;;-1.00;99.90;;;;;;4996392;28;20058;-84
2022/03/05 02:48:23;;;;;;;4.75;2.13;;;0.20;99.90;;;;;;5002215;28;20045;-84
2022/03/05 02:50:50;;;;;;;3.03;1.48;;;-0.20;99.90;;;;;;4995951;28;20515;-84
2022/03/05 02:53:16;;;;;;;6.07;1.70;;;-0.60;99.90;;;;;;5005322;28;20045;-84
2022/03/05 02:55:42;;;;;;;4.88;2.28;;;-0.60;99.90;;;;;;5013036;28;20048;-84
2022/03/05 02:58:08;;;;;;;3.30;2.22;;;0.10;99.90;;;;;;5009196;28;20045;-83
2022/03/05 03:00:34;;;;;;;2.45;2.17;;;-0.70;99.90;;;;;;5003173;28;20038;-84
2022/03/05 03:03:00;;;;;;;6.57;2.97;;;-1.10;99.90;;;;;;5012181;28;20164;-84
2022/03/05 03:05:26;;;;;;;6.88;2.97;;;-0.70;99.90;;;;;;5012185;28;20128;-84
2022/03/05 03:07:52;;;;;;;5.63;4.18;;;-1.10;99.90;;;;;;5012330;28;20042;-84
2022/03/05 03:10:17;;;;;;;4.25;2.13;;;-0.50;99.90;;;;;;5028991;28;20124;-84
2022/03/05 03:12:44;;;;;;;5.82;2.70;;;-1.10;99.90;;;;;;4986181;28;20546;-84
2022/03/05 03:15:15;;;;;;;3.77;2.67;;;0.00;99.90;;;;;;4993613;28;20041;-84
2022/03/05 03:17:49;;;;;;;3.22;2.42;;;-1.10;99.90;;;;;;5019407;28;20293;-84
2022/03/05 03:20:18;;;;;;;4.45;2.88;;;-1.10;99.90;;;;;;4990091;28;20061;-84
2022/03/05 03:22:44;;;;;;;3.38;2.30;;;0.10;99.90;;;;;;5000046;28;20041;-84
2022/03/05 03:25:10;;;;;;;3.80;2.00;;;-1.20;99.90;;;;;;5012285;28;20049;-83
2022/03/05 03:27:36;;;;;;;4.03;2.75;;;-0.40;99.90;;;;;;4984495;28;20056;-84
2022/03/05 03:30:04;;;;;;;3.40;2.23;;;-0.70;99.90;;;;;;5013721;28;20053;-84
2022/03/05 03:32:30;;;;;;;4.18;2.50;;;-1.20;99.90;;;;;;4990268;28;20139;-84
2022/03/05 03:34:56;;;;;;;3.97;2.08;;;-0.60;99.90;;;;;;4985557;28;20137;-84
2022/03/05 03:37:22;;;;;;;4.38;3.78;;;-1.20;99.90;;;;;;4982921;28;20052;-84
2022/03/05 03:39:47;;;;;;;2.97;2.03;;;-0.50;99.90;;;;;;4973178;28;20542;-84
2022/03/05 03:42:14;;;;;;;4.05;1.95;;;-1.20;99.90;;;;;;4993653;28;20375;-83
2022/03/05 03:44:40;;;;;;;2.63;1.95;;;-1.20;99.90;;;;;;5005716;28;20037;-84
2022/03/05 03:47:06;;;;;;;4.00;2.10;;;-0.40;99.90;;;;;;4995720;28;20045;-84
2022/03/05 03:49:32;;;;;;;2.45;2.25;;;-1.30;99.90;;;;;;4988343;28;20870;-84
2022/03/05 03:51:58;;;;;;;3.70;2.38;;;-1.30;99.90;;;;;;5003102;28;20188;-84
2022/03/05 03:54:23;;;;;;;5.07;3.35;;;-1.30;99.90;;;;;;4988313;28;20121;-84
2022/03/05 03:56:49;;;;;;;6.28;2.55;;;-0.70;99.90;;;;;;4992731;28;20072;-84
2022/03/05 03:59:15;;;;;;;4.53;4.15;;;-1.30;99.90;;;;;;5009931;28;20504;-84
2022/03/05 04:01:40;;;;;;;6.85;3.42;;;-1.30;99.90;;;;;;4990873;28;20049;-84
2022/03/05 04:04:06;;;;;;;2.88;2.42;;;-0.40;99.90;;;;;;5002023;28;20048;-84
2022/03/05 04:08:41;;;;;;;8.55;3.15;;;-1.30;99.90;;;;;;4989346;28;20046;-83
2022/03/05 04:09:17;;;;;;;3.85;2.30;;;-1.40;99.90;;;;;;5003437;28;20394;-83
2022/03/05 04:11:43;;;;;;;1.33;1.25;;;-0.60;99.90;;;;;;4990219;28;20048;-84
2022/03/05 04:14:08;;;;;;;1.88;1.75;;;-1.40;99.90;;;;;;4988299;28;20052;-84
2022/03/05 04:16:34;;;;;;;5.38;2.13;;;-1.40;99.90;;;;;;5007088;28;20123;-84
2022/03/05 04:19:00;;;;;;;2.65;2.33;;;-1.20;99.90;;;;;;4978770;28;20056;-83
2022/03/05 04:21:25;;;;;;;10.90;2.20;;;-1.40;99.90;;;;;;5009858;28;20052;-84
2022/03/05 04:23:51;;;;;;;4.50;2.50;;;-1.50;99.90;;;;;;5021967;28;20049;-84
2022/03/05 04:26:17;;;;;;;1.75;1.50;;;-0.20;99.90;;;;;;5003490;28;20140;-84
2022/03/05 04:28:43;;;;;;;4.30;2.90;;;-1.50;99.90;;;;;;5008599;28;20052;-83
2022/03/05 04:31:08;;;;;;;1.75;1.65;;;-0.40;99.90;;;;;;5004512;28;20049;-84
2022/03/05 04:33:34;;;;;;;3.60;1.98;;;-1.60;99.90;;;;;;5002888;28;20073;-83
2022/03/05 04:36:00;;;;;;;1.45;1.35;;;-1.60;99.90;;;;;;5004999;28;20069;-84
2022/03/05 04:38:25;;;;;;;5.38;2.20;;;-1.60;99.90;;;;;;5004438;28;20080;-83
2022/03/05 04:40:51;;;;;;;4.93;2.45;;;-1.70;99.90;;;;;;5010733;28;20049;-83
2022/03/05 04:43:17;;;;;;;3.15;2.60;;;-1.60;99.90;;;;;;5006594;28;20128;-83
2022/03/05 04:45:43;;;;;;;4.85;3.78;;;-1.70;99.90;;;;;;5011065;28;20042;-83
2022/03/05 04:48:08;;;;;;;3.50;3.17;;;-1.70;99.90;;;;;;4991735;28;20053;-83
2022/03/05 04:50:34;;;;;;;6.57;2.88;;;-1.60;99.90;;;;;;5003982;28;20045;-83
2022/03/05 04:53:00;;;;;;;2.58;1.77;;;-1.80;99.90;;;;;;4989349;28;20037;-83
2022/03/05 04:55:26;;;;;;;1.52;1.17;;;-1.80;99.90;;;;;;4962411;28;20134;-83
2022/03/05 04:57:51;;;;;;;2.15;1.95;;;-0.70;99.90;;;;;;4994754;28;20042;-83
2022/03/05 05:00:17;;;;;;;4.22;2.00;;;-1.80;99.90;;;;;;4995438;28;20075;-84
2022/03/05 05:02:43;;;;;;;2.30;2.05;;;-1.80;99.90;;;;;;4980854;28;20100;-83
2022/03/05 05:05:09;;;;;;;2.20;1.80;;;-1.80;99.90;;;;;;4969548;28;20049;-83
2022/03/05 05:07:35;;;;;;;3.88;1.95;;;-1.80;99.90;;;;;;4976300;28;20042;-84
2022/03/05 05:10:00;;;;;;;5.97;2.50;;;-1.30;99.90;;;;;;5003129;28;20042;-84
2022/03/05 05:12:26;;;;;;;2.45;2.28;;;-1.90;99.90;;;;;;4993316;28;20488;-83
2022/03/05 05:14:52;;;;;;;8.82;2.88;;;-1.90;99.90;;;;;;4992723;28;20564;-83
2022/03/05 05:17:17;;;;;;;5.75;2.63;;;-1.90;99.90;;;;;;4997318;28;20048;-84
2022/03/05 05:19:43;;;;;;;3.00;2.60;;;-0.90;99.90;;;;;;4953136;28;20203;-84
2022/03/05 05:22:09;;;;;;;2.10;2.00;;;-0.80;99.90;;;;;;4997410;28;20128;-83
2022/03/05 05:24:36;;;;;;;2.43;1.23;;;-1.90;99.90;;;;;;4999187;28;20034;-83
2022/03/05 05:27:03;;;;;;;2.35;1.73;;;-0.90;99.90;;;;;;5020441;28;20289;-83
2022/03/05 05:29:29;;;;;;;2.25;2.05;;;-1.90;99.90;;;;;;5027338;28;21792;-83
2022/03/05 05:31:55;;;;;;;10.38;3.45;;;-0.90;99.90;;;;;;4993949;28;20128;-83
2022/03/05 05:34:22;;;;;;;3.13;2.83;;;-1.00;99.90;;;;;;4984639;28;20128;-83
2022/03/05 05:36:50;;;;;;;3.17;2.45;;;-1.40;99.90;;;;;;5001869;28;20126;-83
2022/03/05 05:39:16;;;;;;;2.88;2.67;;;-1.30;99.90;;;;;;4977671;28;20045;-83
2022/03/05 05:41:43;;;;;;;2.05;1.95;;;-1.70;99.90;;;;;;4987951;28;20057;-83
2022/03/05 05:44:11;;;;;;;4.40;4.07;;;-1.60;99.90;;;;;;5006083;28;20046;-83
2022/03/05 05:46:37;;;;;;;2.45;2.33;;;-2.00;99.90;;;;;;4974139;28;20286;-83
2022/03/05 05:49:04;;;;;;;4.82;2.60;;;-2.00;99.90;;;;;;4974872;28;20133;-83
2022/03/05 05:51:32;;;;;;;4.07;2.78;;;-2.00;99.90;;;;;;5003830;28;20501;-83
2022/03/05 05:53:58;;;;;;;3.10;2.83;;;-2.00;99.90;;;;;;5008678;28;20064;-83
2022/03/05 05:56:24;;;;;;;2.47;2.30;;;-0.90;99.90;;;;;;4968944;28;20161;-83
2022/03/05 05:58:50;;;;;;;1.70;1.40;;;-2.00;99.90;;;;;;4994640;28;20042;-83
2022/03/05 06:01:17;;;;;;;3.42;3.13;;;-2.00;99.90;;;;;;5009406;28;20045;-83
2022/03/05 06:03:44;;;;;;;2.25;1.63;;;-1.10;99.90;;;;;;5008809;28;20099;-83
2022/03/05 06:06:11;;;;;;;;;;;-2.10;99.90;;;;;;5009599;28;20058;-83
2022/03/05 06:08:36;;;;;;;6.25;2.35;;;-2.00;99.90;;;;;;5009134;28;19936;-83
2022/03/05 06:11:02;;;;;;;1.80;1.70;;;-2.10;99.90;;;;;;5008847;28;20042;-83
2022/03/05 06:13:28;;;;;;;2.42;2.33;;;-2.10;99.90;;;;;;4991904;28;20057;-83
2022/03/05 06:15:54;;;;;;;3.72;3.42;;;-1.60;99.90;;;;;;4975671;28;20041;-83
2022/03/05 06:18:20;;;;;;;1.88;1.25;;;-1.00;99.90;;;;;;4998217;28;20107;-83
2022/03/05 06:20:46;;;;;;;8.00;3.42;;;-2.20;99.90;;;;;;5014140;28;20042;-83
2022/03/05 06:23:11;;;;;;;2.88;2.55;;;-2.10;99.90;;;;;;5000136;28;20042;-82
2022/03/05 06:25:37;;;;;;;3.08;2.13;;;-2.10;99.90;;;;;;5018197;28;20049;-85
2022/03/05 06:28:03;;;;;;;2.25;2.05;;;-2.10;99.90;;;;;;5004895;28;20046;-85
2022/03/05 06:30:29;;;;;;;3.65;3.33;;;-2.10;99.90;;;;;;4998460;28;20053;-85
2022/03/05 06:32:55;;;;;;;9.50;3.15;;;-2.00;99.90;;;;;;4982487;28;20045;-84
2022/03/05 06:35:21;;;;;;;2.97;2.35;;;-1.30;99.90;;;;;;4992748;28;20080;-85
2022/03/05 06:37:52;;;;;;;5.25;2.25;;;-1.50;99.90;;;;;;4973394;28;20129;-88
2022/03/05 06:40:18;;;;;;;2.75;2.00;;;-2.30;99.90;;;;;;5015379;28;20095;-84
2022/03/05 06:42:51;;;;;;;4.95;2.17;;;-1.90;99.90;;;;;;4973881;28;20046;-86
2022/03/05 06:45:17;;;;;;;6.70;3.03;;;-1.90;99.90;;;;;;4962540;28;20045;-83
2022/03/05 06:47:43;;;;;;;4.05;2.60;;;-1.90;99.90;;;;;;5006209;28;20048;-83
2022/03/05 06:50:11;;;;;;;5.57;3.72;;;-1.90;99.90;;;;;;4989507;28;20496;-82
2022/03/05 06:52:37;;;;;;;2.17;1.98;;;-0.40;99.90;;;;;;5024326;28;20064;-83
2022/03/05 06:55:04;;;;;;;2.30;2.10;;;-0.60;99.90;;;;;;5006314;28;20049;-82
2022/03/05 06:57:30;;;;;;;2.60;2.30;;;-1.80;99.90;;;;;;4985260;28;20284;-83
2022/03/05 06:59:56;;;;;;;4.43;2.43;;;-1.80;99.90;;;;;;5007782;28;20049;-84
2022/03/05 07:02:21;;;;;;;4.55;3.17;;;-1.70;99.90;;;;;;4959101;28;20050;-83
2022/03/05 07:04:47;;;;;;;5.13;2.45;;;-0.40;99.90;;;;;;5003252;28;20045;-83
2022/03/05 07:07:13;;;;;;;3.90;2.38;;;-0.40;99.90;;;;;;4990063;28;20054;-85
2022/03/05 07:09:39;;;;;;;3.55;2.60;;;-1.30;99.90;;;;;;4980034;28;20098;-85
2022/03/05 07:12:06;;;;;;;2.40;1.87;;;0.40;99.90;;;;;;5008741;28;20037;-86
2022/03/05 07:14:32;;;;;;;7.25;3.42;;;-0.10;99.90;;;;;;5006198;28;20124;-87
2022/03/05 07:16:57;;;;;;;9.68;3.78;;;1.20;99.90;;;;;;5011431;28;20212;-88
2022/03/05 07:19:23;;;;;;;5.93;3.63;;;1.00;99.90;;;;;;5009798;28;20041;-87
2022/03/05 07:21:50;;;;;;;4.43;3.10;;;2.40;99.90;;;;;;5006374;28;20045;-85
2022/03/05 07:24:16;;;;;;;8.15;3.88;;;1.50;99.90;;;;;;5009422;28;20049;-86
2022/03/05 07:26:41;;;;;;;5.70;4.10;;;2.00;99.90;;;;;;4980537;28;20050;-84
2022/03/05 07:29:07;;;;;;;4.90;3.63;;;2.60;99.90;;;;;;4983851;28;20303;-86
2022/03/05 07:31:33;;;;;;;6.00;3.83;;;2.70;99.90;;;;;;5009804;28;20034;-86
2022/03/05 07:33:59;;;;;;;8.30;4.07;;;3.10;99.90;;;;;;5006573;28;20050;-86
2022/03/05 07:36:25;;;;;;;5.83;3.60;;;3.40;99.90;;;;;;4988092;28;20125;-87
2022/03/05 07:38:51;;;;;;;7.10;4.22;;;4.50;99.90;;;;;;4994332;28;20041;-88
2022/03/05 07:41:18;;;;;;;7.38;3.70;;;4.00;99.90;;;;;;5010225;28;20049;-87
2022/03/05 07:43:44;;;;;;;9.77;4.38;;;4.10;99.90;;;;;;4979410;28;20041;-86
2022/03/05 07:46:09;;;;;;;6.70;3.57;;;4.40;99.90;;;;;;4998291;28;20104;-89
2022/03/05 07:48:35;;;;;;;5.97;3.80;;;4.50;99.90;;;;;;4968973;28;20293;-87
2022/03/05 07:51:02;;;;;;;11.30;4.23;;;4.70;99.90;;;;;;4987378;28;20050;-83
2022/03/05 07:53:29;;;;;;;7.28;4.65;;;4.90;99.90;;;;;;5027844;28;20077;-85
2022/03/05 07:55:55;;;;;;;;;;;5.00;99.90;;;;;;5029400;28;20083;-86
2022/03/05 07:58:21;;;;;;;4.82;3.65;;;5.70;99.90;;;;;;4982916;28;19940;-85
2022/03/05 08:00:47;;;;;;;8.93;3.95;;;5.30;99.90;;;;;;4978656;28;20049;-84
2022/03/05 08:03:13;;;;;;;6.17;3.70;;;5.40;99.90;;;;;;4999512;28;20049;-87
2022/03/05 08:05:39;;;;;;;6.57;3.83;;;5.60;99.90;;;;;;4978535;28;20050;-85
2022/03/05 08:08:04;;;;;;;7.23;4.57;;;5.80;99.90;;;;;;5010166;28;20038;-84
2022/03/05 08:10:30;;;;;;;8.30;3.70;;;5.90;99.90;;;;;;4997843;28;20049;-83
2022/03/05 08:12:58;;;;;;;6.73;3.90;;;6.00;99.90;;;;;;4978071;28;20041;-96
2022/03/05 08:15:24;;;;;;;6.05;3.88;;;7.00;99.90;;;;;;4992889;28;20042;-85
2022/03/05 08:17:54;;;;;;;5.60;4.03;;;6.20;99.90;;;;;;4981494;28;20053;-84
2022/03/05 08:20:21;;;;;;;6.53;4.07;;;6.30;99.90;;;;;;5015687;28;20042;-83
2022/03/05 08:22:49;;;;;;;8.65;4.50;;;6.50;99.90;;;;;;5015675;28;20510;-83
2022/03/05 08:25:16;;;;;;;10.55;4.53;;;6.60;99.90;;;;;;4999842;28;20053;-83
2022/03/05 08:27:42;;;;;;;8.82;5.13;;;6.70;99.90;;;;;;5016011;28;20034;-83
2022/03/05 08:30:09;;;;;;;7.95;4.25;;;6.80;99.90;;;;;;4999012;28;20104;-83
2022/03/05 08:32:35;;;;;;;5.70;4.07;;;7.00;99.90;;;;;;4999051;28;20107;-82
2022/03/05 08:35:00;;;;;;;6.77;3.90;;;7.10;99.90;;;;;;4998716;28;20045;-82
2022/03/05 08:37:27;;;;;;;8.27;4.23;;;7.30;99.90;;;;;;5033051;28;20045;-83
2022/03/05 08:39:53;;;;;;;;;;;7.30;99.90;;;;;;4999625;28;20408;-83
2022/03/05 08:42:19;;;;;;;7.45;4.28;;;7.40;99.90;;;;;;4999368;28;20023;-83
2022/03/05 08:44:45;;;;;;;6.35;4.38;;;8.20;99.90;;;;;;5015639;28;20048;-83
2022/03/05 08:47:11;;;;;;;7.27;4.70;;;7.50;99.90;;;;;;5014862;28;20137;-83
2022/03/05 08:49:36;;;;;;;9.70;4.70;;;7.40;99.90;;;;;;4999381;28;20092;-83
2022/03/05 08:52:02;;;;;;;9.03;5.57;;;7.60;99.90;;;;;;5014868;28;20056;-82
2022/03/05 08:54:28;;;;;;;8.25;4.53;;;7.70;99.90;;;;;;4999201;28;20045;-82
2022/03/05 08:56:54;;;;;;;6.83;4.70;;;7.70;99.90;;;;;;4998610;28;20454;-83
2022/03/05 08:59:20;;;;;;;9.50;4.97;;;7.60;99.90;;;;;;4999163;28;20467;-82
2022/03/05 09:01:45;;;;;;;10.37;4.93;;;7.70;99.90;;;;;;5015161;28;20037;-82
2022/03/05 09:04:12;;;;;;;8.37;4.83;;;7.70;99.90;;;;;;4997778;28;20119;-82
2022/03/05 09:06:38;;;;;;;9.80;5.20;;;7.60;99.90;;;;;;5015331;28;20129;-82
2022/03/05 09:09:05;;;;;;;9.23;5.10;;;7.50;99.90;;;;;;5032230;28;20045;-82
2022/03/05 09:11:31;;;;;;;8.30;5.13;;;7.30;99.90;;;;;;5015364;28;20088;-83
2022/03/05 09:13:56;;;;;;;9.27;5.37;;;6.90;99.90;;;;;;4998396;28;20139;-82
2022/03/05 09:16:22;;;;;;;9.57;5.27;;;6.70;99.90;;;;;;5015202;28;20480;-82
2022/03/05 09:18:48;;;;;;;9.97;5.50;;;6.50;99.90;;;;;;5032528;28;20049;-83
2022/03/05 09:21:14;;;;;;;7.60;5.27;;;7.30;99.90;;;;;;4998229;28;20303;-83
2022/03/05 09:23:40;;;;;;;11.90;5.60;;;6.60;99.90;;;;;;5032431;28;20037;-83
2022/03/05 09:26:06;;;;;;;13.63;6.40;;;6.80;99.90;;;;;;5014155;28;20049;-82
2022/03/05 09:28:32;;;;;;;10.83;6.13;;;6.90;99.90;;;;;;5014958;28;20041;-82
2022/03/05 09:30:58;;;;;;;10.47;5.90;;;6.90;99.90;;;;;;4998311;28;20507;-83
2022/03/05 09:33:25;;;;;;;11.73;6.13;;;7.10;99.90;;;;;;5014202;28;20411;-83
2022/03/05 09:35:51;;;;;;;9.30;6.05;;;7.70;99.90;;;;;;5014612;28;20045;-82
2022/03/05 09:38:18;;;;;;;8.68;5.32;;;6.90;99.90;;;;;;5014289;28;20045;-82
2022/03/05 09:40:44;;;;;;;10.35;5.85;;;6.90;99.90;;;;;;5014966;28;20050;-82
2022/03/05 09:43:10;;;;;;;12.68;6.20;;;7.40;99.90;;;;;;4998004;28;20050;-83
2022/03/05 09:45:37;;;;;;;9.13;6.38;;;6.60;99.90;;;;;;5017770;28;20071;-83
2022/03/05 09:48:02;;;;;;;11.52;6.40;;;7.40;99.90;;;;;;5002185;28;20050;-83
2022/03/05 09:50:29;;;;;;;15.10;6.50;;;6.60;99.90;;;;;;5002668;28;20052;-83
2022/03/05 09:52:56;;;;;;;15.75;7.78;;;6.80;99.90;;;;;;5036536;28;20107;-83
2022/03/05 09:55:22;;;;;;;11.25;7.05;;;7.10;99.90;;;;;;5035491;28;20056;-83
2022/03/05 09:57:48;;;;;;;9.40;6.30;;;7.20;99.90;;;;;;5002221;28;20046;-83
2022/03/05 10:00:14;;;;;;;9.90;6.50;;;7.40;99.90;;;;;;5018177;28;20049;-83
2022/03/05 10:02:41;;;;;;;7.75;5.38;;;7.50;99.90;;;;;;5002162;28;20106;-82
2022/03/05 10:05:24;;;;;;;8.40;5.53;;;7.50;99.90;;;;;;5017292;28;20458;-83
2022/03/05 10:08:13;;;;;;;17.70;6.65;;;7.40;99.30;;;;;;5018901;28;20041;-83
2022/03/05 10:10:44;;;;;;;11.50;6.00;;;7.30;99.90;;;;;;5036285;28;20080;-83
2022/03/05 10:13:26;;;;;;;9.80;5.80;;;7.40;99.90;;;;;;5001804;28;20110;-83
2022/03/05 10:16:14;;;;;;;9.27;6.22;;;7.30;99.80;;;;;;5018654;28;20038;-83
2022/03/05 10:18:40;;;;;;;11.63;5.85;;;7.20;99.90;;;;;;5004508;28;20496;-83
2022/03/05 10:21:09;;;;;;;11.97;6.00;;;7.40;99.90;;;;;;5017502;28;20048;-83
2022/03/05 10:23:37;;;;;;;11.57;6.43;;;7.30;99.90;;;;;;5035564;28;20081;-83
2022/03/05 10:26:06;;;;;;;13.32;7.22;;;7.50;99.90;;;;;;5001393;28;20523;-82
2022/03/05 10:28:33;;;;;;;12.63;6.32;;;7.50;99.90;;;;;;5035678;28;20052;-83
2022/03/05 10:31:09;;;;;;;12.13;6.40;;;7.40;99.90;;;;;;5017894;28;20450;-83
2022/03/05 10:33:44;;;;;;;18.53;6.77;;;7.40;99.90;;;;;;5001434;28;20107;-83
2022/03/05 10:36:16;;;;;;;11.38;6.75;;;7.50;99.10;;;;;;5017116;28;20280;-83
2022/03/05 10:38:46;;;;;;;11.88;7.30;;;7.50;98.10;;;;;;4982096;28;20050;-83
2022/03/05 10:41:17;;;;;;;17.63;7.18;;;7.50;98.50;;;;;;4981015;28;20042;-83
2022/03/05 10:44:15;;;;;;;10.45;6.47;;;7.60;97.80;;;;;;4998318;28;20516;-83
2022/03/05 10:46:42;;;;;;;13.63;6.32;;;7.70;96.20;;;;;;4989069;28;20058;-83
2022/03/05 10:49:16;;;;;;;12.38;6.75;;;7.90;97.90;;;;;;4981484;28;20246;-83
2022/03/05 10:52:02;;;;;;;13.32;6.63;;;8.10;96.30;;;;;;5014961;28;20061;-83
2022/03/05 10:54:39;;;;;;;11.48;7.05;;;8.30;94.80;;;;;;4964584;28;20081;-83
2022/03/05 10:57:16;;;;;;;15.55;7.78;;;8.40;94.20;;;;;;4997763;28;20046;-83
2022/03/05 10:59:47;;;;;;;15.45;7.63;;;8.40;93.80;;;;;;4997940;28;20088;-83
2022/03/05 11:02:19;;;;;;;14.25;7.43;;;8.10;93.70;;;;;;5014514;28;20054;-83
2022/03/05 11:04:46;;;;;;;12.55;7.18;;;8.10;94.90;;;;;;5004537;28;20033;-83
2022/03/05 11:07:16;;;;;;;11.43;7.22;;;8.10;94.40;;;;;;4968076;28;20057;-82
2022/03/05 11:09:43;;;;;;;10.63;6.97;;;8.20;94.20;;;;;;5034919;28;20088;-83
2022/03/05 11:12:13;;;;;;;12.07;6.60;;;8.30;94.60;;;;;;5000514;28;20080;-83
2022/03/05 11:14:39;;;;;;;18.33;7.45;;;8.30;93.70;;;;;;5001117;28;20060;-83
2022/03/05 11:17:05;;;;;;;13.17;6.83;;;8.40;93.10;;;;;;5000773;28;20396;-83
2022/03/05 11:19:31;;;;;;;14.40;6.80;;;8.40;92.90;;;;;;5016769;28;20058;-83
2022/03/05 11:21:58;;;;;;;9.63;5.47;;;8.40;92.10;;;;;;5034645;28;20291;-84
2022/03/05 11:24:24;;;;;;;14.93;7.45;;;8.40;91.70;;;;;;5000035;28;20488;-84
2022/03/05 11:26:52;;;;;;;14.90;7.45;;;8.50;91.80;;;;;;5000843;28;20047;-83
2022/03/05 11:29:19;;;;;;;12.82;7.20;;;8.60;91.50;;;;;;5016619;28;20041;-83
2022/03/05 11:31:47;;;;;;;13.23;6.75;;;8.80;91.20;;;;;;5000796;28;20111;-83
2022/03/05 11:34:22;;;;;;;11.80;6.60;;;8.90;91.10;;;;;;5015430;28;20523;-83
2022/03/05 11:36:51;;;;;;;12.18;7.15;;;9.20;88.50;;;;;;5016598;28;20457;-84
2022/03/05 11:39:16;;;;;;;12.30;7.00;;;9.10;89.40;;;;;;5015800;28;20049;-83
2022/03/05 11:41:51;;;;;;;11.40;7.10;;;9.20;88.70;;;;;;4999833;28;20060;-83
2022/03/05 11:44:18;;;;;;;12.00;7.20;;;9.30;85.30;;;;;;5033605;28;20048;-83
2022/03/05 11:46:44;;;;;;;16.88;8.18;;;9.40;85.90;;;;;;5016547;28;20049;-83
2022/03/05 11:49:12;;;;;;;9.60;6.60;;;9.30;87.50;;;;;;4984375;28;20041;-83
2022/03/05 11:51:58;;;;;;;11.60;6.18;;;9.30;88.10;;;;;;5016268;28;20088;-84
2022/03/05 11:54:25;;;;;;;12.25;7.25;;;9.20;84.00;;;;;;5015978;28;20048;-83
2022/03/05 11:57:13;;;;;;;19.67;7.85;;;9.50;87.20;;;;;;5034286;28;20056;-83
2022/03/05 11:59:51;;;;;;;9.73;6.63;;;9.80;83.30;;;;;;5034323;28;20128;-84
2022/03/05 12:02:38;;;;;;;12.38;6.82;;;10.00;83.50;;;;;;5033544;28;20088;-83
2022/03/05 12:05:04;;;;;;;11.50;6.72;;;10.10;78.80;;;;;;4999409;28;20049;-84
2022/03/05 12:07:40;;;;;;;11.88;7.07;;;10.10;82.40;;;;;;4998830;28;20475;-84
2022/03/05 12:10:16;;;;;;;13.93;7.13;;;10.10;82.90;;;;;;4999222;28;20060;-84
2022/03/05 12:13:07;;;;;;;10.40;6.47;;;10.00;81.40;;;;;;4999911;28;20068;-83
2022/03/05 12:15:41;;;;;;;13.68;7.13;;;10.10;79.10;;;;;;5015374;28;20053;-84
2022/03/05 12:18:10;;;;;;;15.23;7.82;;;10.30;82.30;;;;;;5000988;28;20045;-83
2022/03/05 12:20:38;;;;;;;15.15;7.43;;;10.50;81.70;;;;;;5033033;28;20044;-83
2022/03/05 12:23:07;;;;;;;12.27;7.60;;;10.60;80.40;;;;;;5016026;28;20046;-84
2022/03/05 12:25:39;;;;;;;13.85;7.13;;;10.50;79.50;;;;;;5015161;28;20049;-84
2022/03/05 12:28:12;;;;;;;13.23;7.32;;;10.50;78.50;;;;;;5016084;28;20440;-84
2022/03/05 12:30:39;;;;;;;13.40;7.50;;;10.50;81.10;;;;;;5015083;28;20048;-84
2022/03/05 12:33:06;;;;;;;12.57;6.55;;;10.60;80.50;;;;;;5015422;28;20128;-83
2022/03/05 12:35:34;;;;;;;14.77;6.72;;;10.70;77.90;;;;;;5031076;28;20053;-84
2022/03/05 12:38:00;;;;;;;13.30;6.22;;;11.10;76.90;;;;;;5015547;28;20103;-84
2022/03/05 12:40:27;;;;;;;14.45;7.03;;;11.50;77.30;;;;;;4998983;28;20387;-84
2022/03/05 12:42:55;;;;;;;9.82;6.43;;;11.70;77.50;;;;;;5033407;28;20124;-84
2022/03/05 12:45:24;;;;;;;11.27;6.55;;;11.70;75.70;;;;;;5032490;28;20045;-84
2022/03/05 12:47:51;;;;;;;12.57;6.88;;;11.50;77.10;;;;;;4999373;28;20373;-84
2022/03/05 12:50:18;;;;;;;13.20;7.18;;;11.40;77.40;;;;;;4999342;28;20084;-84